sensor_id;sensor_type;location;lat;lon;timestamp;temperature;humidity
8459;DHT22;4266;48.816;9.154;2023-08-06T00:00:19;15.50;99.90
8459;DHT22;4266;48.816;9.154;2023-08-06T00:02:45;15.50;99.90
8459;DHT22;4266;48.816;9.154;2023-08-06T00:05:10;15.50;99.90
8459;DHT22;4266;48.816;9.154;2023-08-06T00:07:36;15.50;99.90
8459;DHT22;4266;48.816;9.154;2023-08-06T00:10:02;15.40;99.90
8459;DHT22;4266;48.816;9.154;2023-08-06T00:12:27;15.30;99.90
8459;DHT22;4266;48.816;9.154;2023-08-06T00:14:54;15.30;99.90
8459;DHT22;4266;48.816;9.154;2023-08-06T00:17:20;15.20;99.90
8459;DHT22;4266;48.816;9.154;2023-08-06T00:19:45;15.20;99.90
8459;DHT22;4266;48.816;9.154;2023-08-06T00:22:11;15.10;99.90
8459;DHT22;4266;48.816;9.154;2023-08-06T00:24:37;14.90;99.90
8459;DHT22;4266;48.816;9.154;2023-08-06T00:27:04;14.90;99.90
8459;DHT22;4266;48.816;9.154;2023-08-06T00:29:30;14.80;99.90
8459;DHT22;4266;48.816;9.154;2023-08-06T00:31:56;14.70;99.90
8459;DHT22;4266;48.816;9.154;2023-08-06T00:34:22;14.70;99.90
8459;DHT22;4266;48.816;9.154;2023-08-06T00:36:48;14.70;99.90
8459;DHT22;4266;48.816;9.154;2023-08-06T00:39:14;14.60;99.90
8459;DHT22;4266;48.816;9.154;2023-08-06T00:41:39;14.50;99.90
8459;DHT22;4266;48.816;9.154;2023-08-06T00:44:05;14.50;99.90
8459;DHT22;4266;48.816;9.154;2023-08-06T00:46:31;14.40;99.90
8459;DHT22;4266;48.816;9.154;2023-08-06T00:48:56;14.20;99.90
8459;DHT22;4266;48.816;9.154;2023-08-06T00:51:22;14.20;99.90
8459;DHT22;4266;48.816;9.154;2023-08-06T00:53:49;14.20;99.90
8459;DHT22;4266;48.816;9.154;2023-08-06T00:56:14;14.10;99.90
8459;DHT22;4266;48.816;9.154;2023-08-06T00:58:40;14.10;99.90
8459;DHT22;4266;48.816;9.154;2023-08-06T01:01:06;14.10;99.90
8459;DHT22;4266;48.816;9.154;2023-08-06T01:03:31;14.00;99.90
8459;DHT22;4266;48.816;9.154;2023-08-06T01:05:58;13.90;99.90
8459;DHT22;4266;48.816;9.154;2023-08-06T01:08:48;13.90;99.90
8459;DHT22;4266;48.816;9.154;2023-08-06T01:11:26;13.80;99.90
8459;DHT22;4266;48.816;9.154;2023-08-06T01:13:50;13.70;99.90
8459;DHT22;4266;48.816;9.154;2023-08-06T01:16:16;13.60;99.90
8459;DHT22;4266;48.816;9.154;2023-08-06T01:18:41;13.60;99.90
8459;DHT22;4266;48.816;9.154;2023-08-06T01:21:07;13.60;99.90
8459;DHT22;4266;48.816;9.154;2023-08-06T01:23:32;13.70;99.90
8459;DHT22;4266;48.816;9.154;2023-08-06T01:26:05;13.70;99.90
8459;DHT22;4266;48.816;9.154;2023-08-06T01:28:52;13.80;99.90
8459;DHT22;4266;48.816;9.154;2023-08-06T01:31:15;13.80;99.90
8459;DHT22;4266;48.816;9.154;2023-08-06T01:33:40;13.80;99.90
8459;DHT22;4266;48.816;9.154;2023-08-06T01:36:06;13.80;99.90
8459;DHT22;4266;48.816;9.154;2023-08-06T01:38:32;13.80;99.90
8459;DHT22;4266;48.816;9.154;2023-08-06T01:40:57;13.90;99.90
8459;DHT22;4266;48.816;9.154;2023-08-06T01:43:23;13.90;99.90
8459;DHT22;4266;48.816;9.154;2023-08-06T01:45:49;13.90;99.90
8459;DHT22;4266;48.816;9.154;2023-08-06T01:48:14;13.90;99.90
8459;DHT22;4266;48.816;9.154;2023-08-06T01:50:41;13.90;99.90
8459;DHT22;4266;48.816;9.154;2023-08-06T01:53:06;13.90;99.90
8459;DHT22;4266;48.816;9.154;2023-08-06T01:55:32;13.90;99.90
8459;DHT22;4266;48.816;9.154;2023-08-06T01:57:58;13.90;99.90
8459;DHT22;4266;48.816;9.154;2023-08-06T02:00:23;13.80;99.90
8459;DHT22;4266;48.816;9.154;2023-08-06T02:02:49;13.80;99.90
8459;DHT22;4266;48.816;9.154;2023-08-06T02:05:15;13.70;99.90
8459;DHT22;4266;48.816;9.154;2023-08-06T02:07:40;13.70;99.90
8459;DHT22;4266;48.816;9.154;2023-08-06T02:10:08;13.70;99.90
8459;DHT22;4266;48.816;9.154;2023-08-06T02:12:34;13.60;99.90
8459;DHT22;4266;48.816;9.154;2023-08-06T02:15:00;13.50;99.90
8459;DHT22;4266;48.816;9.154;2023-08-06T02:17:26;13.50;99.90
8459;DHT22;4266;48.816;9.154;2023-08-06T02:19:53;13.40;99.90
8459;DHT22;4266;48.816;9.154;2023-08-06T02:22:19;13.40;99.90
8459;DHT22;4266;48.816;9.154;2023-08-06T02:24:45;13.30;99.90
8459;DHT22;4266;48.816;9.154;2023-08-06T02:27:11;13.30;99.90
8459;DHT22;4266;48.816;9.154;2023-08-06T02:29:37;13.40;99.90
8459;DHT22;4266;48.816;9.154;2023-08-06T02:32:03;13.30;99.90
8459;DHT22;4266;48.816;9.154;2023-08-06T02:34:29;13.30;99.90
8459;DHT22;4266;48.816;9.154;2023-08-06T02:36:55;13.30;99.90
8459;DHT22;4266;48.816;9.154;2023-08-06T02:39:21;13.20;99.90
8459;DHT22;4266;48.816;9.154;2023-08-06T02:41:47;13.10;99.90
8459;DHT22;4266;48.816;9.154;2023-08-06T02:44:12;13.20;99.90
8459;DHT22;4266;48.816;9.154;2023-08-06T02:46:39;13.00;99.90
8459;DHT22;4266;48.816;9.154;2023-08-06T02:49:04;13.00;99.90
8459;DHT22;4266;48.816;9.154;2023-08-06T02:51:30;13.00;99.90
8459;DHT22;4266;48.816;9.154;2023-08-06T02:53:56;13.00;99.90
8459;DHT22;4266;48.816;9.154;2023-08-06T02:56:21;13.00;99.90
8459;DHT22;4266;48.816;9.154;2023-08-06T02:58:48;12.90;99.90
8459;DHT22;4266;48.816;9.154;2023-08-06T03:01:13;12.90;99.90
8459;DHT22;4266;48.816;9.154;2023-08-06T03:03:39;12.80;99.90
8459;DHT22;4266;48.816;9.154;2023-08-06T03:06:05;12.80;99.90
8459;DHT22;4266;48.816;9.154;2023-08-06T03:08:30;12.80;99.90
8459;DHT22;4266;48.816;9.154;2023-08-06T03:10:56;12.80;99.90
8459;DHT22;4266;48.816;9.154;2023-08-06T03:13:22;12.80;99.90
8459;DHT22;4266;48.816;9.154;2023-08-06T03:15:53;12.90;99.90
8459;DHT22;4266;48.816;9.154;2023-08-06T03:18:18;12.90;99.90
8459;DHT22;4266;48.816;9.154;2023-08-06T03:20:44;13.00;99.90
8459;DHT22;4266;48.816;9.154;2023-08-06T03:23:09;13.10;99.90
8459;DHT22;4266;48.816;9.154;2023-08-06T03:25:35;13.10;99.90
8459;DHT22;4266;48.816;9.154;2023-08-06T03:28:01;13.20;99.90
8459;DHT22;4266;48.816;9.154;2023-08-06T03:30:27;13.30;99.90
8459;DHT22;4266;48.816;9.154;2023-08-06T03:32:52;13.30;99.90
8459;DHT22;4266;48.816;9.154;2023-08-06T03:35:18;13.30;99.90
8459;DHT22;4266;48.816;9.154;2023-08-06T03:37:44;13.30;99.90
8459;DHT22;4266;48.816;9.154;2023-08-06T03:40:10;13.20;99.90
8459;DHT22;4266;48.816;9.154;2023-08-06T03:42:36;13.30;99.90
8459;DHT22;4266;48.816;9.154;2023-08-06T03:45:04;13.30;99.90
8459;DHT22;4266;48.816;9.154;2023-08-06T03:47:30;13.30;99.90
8459;DHT22;4266;48.816;9.154;2023-08-06T03:49:55;13.20;99.90
8459;DHT22;4266;48.816;9.154;2023-08-06T03:52:21;13.30;99.90
8459;DHT22;4266;48.816;9.154;2023-08-06T03:54:47;13.30;99.90
8459;DHT22;4266;48.816;9.154;2023-08-06T03:57:12;13.30;99.90
8459;DHT22;4266;48.816;9.154;2023-08-06T03:59:38;13.30;99.90
8459;DHT22;4266;48.816;9.154;2023-08-06T04:02:05;13.30;99.90
8459;DHT22;4266;48.816;9.154;2023-08-06T04:04:30;13.30;99.90
8459;DHT22;4266;48.816;9.154;2023-08-06T04:06:56;13.30;99.90
8459;DHT22;4266;48.816;9.154;2023-08-06T04:09:22;13.30;99.90
8459;DHT22;4266;48.816;9.154;2023-08-06T04:11:48;13.30;99.90
8459;DHT22;4266;48.816;9.154;2023-08-06T04:14:14;13.30;99.90
8459;DHT22;4266;48.816;9.154;2023-08-06T04:16:39;13.40;99.90
8459;DHT22;4266;48.816;9.154;2023-08-06T04:19:06;13.40;99.90
8459;DHT22;4266;48.816;9.154;2023-08-06T04:21:33;13.50;99.90
8459;DHT22;4266;48.816;9.154;2023-08-06T04:23:59;13.50;99.90
8459;DHT22;4266;48.816;9.154;2023-08-06T04:26:24;13.60;99.90
8459;DHT22;4266;48.816;9.154;2023-08-06T04:28:50;13.70;99.90
8459;DHT22;4266;48.816;9.154;2023-08-06T04:31:16;13.80;99.90
8459;DHT22;4266;48.816;9.154;2023-08-06T04:33:41;13.80;99.90
8459;DHT22;4266;48.816;9.154;2023-08-06T04:36:07;13.80;99.90
8459;DHT22;4266;48.816;9.154;2023-08-06T04:38:33;13.80;99.90
8459;DHT22;4266;48.816;9.154;2023-08-06T04:40:59;13.80;99.90
8459;DHT22;4266;48.816;9.154;2023-08-06T04:43:25;13.80;99.90
8459;DHT22;4266;48.816;9.154;2023-08-06T04:45:51;13.80;99.90
8459;DHT22;4266;48.816;9.154;2023-08-06T04:48:17;13.90;99.90
8459;DHT22;4266;48.816;9.154;2023-08-06T04:50:44;13.90;99.90
8459;DHT22;4266;48.816;9.154;2023-08-06T04:53:10;13.90;99.90
8459;DHT22;4266;48.816;9.154;2023-08-06T04:55:35;13.90;99.90
8459;DHT22;4266;48.816;9.154;2023-08-06T04:58:01;13.90;99.90
8459;DHT22;4266;48.816;9.154;2023-08-06T05:00:27;13.90;99.90
8459;DHT22;4266;48.816;9.154;2023-08-06T05:02:52;13.90;99.90
8459;DHT22;4266;48.816;9.154;2023-08-06T05:05:18;13.90;99.90
8459;DHT22;4266;48.816;9.154;2023-08-06T05:07:45;13.80;99.90
8459;DHT22;4266;48.816;9.154;2023-08-06T05:10:09;13.90;99.90
8459;DHT22;4266;48.816;9.154;2023-08-06T05:12:35;14.00;99.90
8459;DHT22;4266;48.816;9.154;2023-08-06T05:15:01;14.00;99.90
8459;DHT22;4266;48.816;9.154;2023-08-06T05:17:27;14.00;99.90
8459;DHT22;4266;48.816;9.154;2023-08-06T05:19:53;13.90;99.90
8459;DHT22;4266;48.816;9.154;2023-08-06T05:22:18;13.90;99.90
8459;DHT22;4266;48.816;9.154;2023-08-06T05:24:44;14.00;99.90
8459;DHT22;4266;48.816;9.154;2023-08-06T05:27:11;14.30;99.90
8459;DHT22;4266;48.816;9.154;2023-08-06T05:29:36;14.30;99.90
8459;DHT22;4266;48.816;9.154;2023-08-06T05:32:02;14.70;99.90
8459;DHT22;4266;48.816;9.154;2023-08-06T05:34:29;15.20;99.90
8459;DHT22;4266;48.816;9.154;2023-08-06T05:36:54;15.20;99.90
8459;DHT22;4266;48.816;9.154;2023-08-06T05:39:20;15.40;99.90
8459;DHT22;4266;48.816;9.154;2023-08-06T05:41:46;15.60;99.90
8459;DHT22;4266;48.816;9.154;2023-08-06T05:44:11;15.80;99.90
8459;DHT22;4266;48.816;9.154;2023-08-06T05:46:37;15.90;99.90
8459;DHT22;4266;48.816;9.154;2023-08-06T05:49:03;15.70;99.90
8459;DHT22;4266;48.816;9.154;2023-08-06T05:51:28;15.70;99.90
8459;DHT22;4266;48.816;9.154;2023-08-06T05:53:54;15.60;99.90
8459;DHT22;4266;48.816;9.154;2023-08-06T05:56:20;15.60;99.90
8459;DHT22;4266;48.816;9.154;2023-08-06T05:58:45;15.60;99.90
8459;DHT22;4266;48.816;9.154;2023-08-06T06:01:11;15.50;99.90
8459;DHT22;4266;48.816;9.154;2023-08-06T06:03:37;15.50;99.90
8459;DHT22;4266;48.816;9.154;2023-08-06T06:06:03;15.30;99.90
8459;DHT22;4266;48.816;9.154;2023-08-06T06:08:29;15.30;99.90
8459;DHT22;4266;48.816;9.154;2023-08-06T06:10:54;15.20;99.90
8459;DHT22;4266;48.816;9.154;2023-08-06T06:13:20;15.20;99.90
8459;DHT22;4266;48.816;9.154;2023-08-06T06:15:47;15.00;99.90
8459;DHT22;4266;48.816;9.154;2023-08-06T06:18:13;15.00;99.90
8459;DHT22;4266;48.816;9.154;2023-08-06T06:20:38;14.80;99.90
8459;DHT22;4266;48.816;9.154;2023-08-06T06:23:04;14.90;99.90
8459;DHT22;4266;48.816;9.154;2023-08-06T06:25:30;14.90;99.90
8459;DHT22;4266;48.816;9.154;2023-08-06T06:27:56;14.90;99.90
8459;DHT22;4266;48.816;9.154;2023-08-06T06:30:22;14.90;99.90
8459;DHT22;4266;48.816;9.154;2023-08-06T06:32:48;14.90;99.90
8459;DHT22;4266;48.816;9.154;2023-08-06T06:35:14;14.90;99.90
8459;DHT22;4266;48.816;9.154;2023-08-06T06:37:40;14.80;99.90
8459;DHT22;4266;48.816;9.154;2023-08-06T06:40:07;14.90;99.90
8459;DHT22;4266;48.816;9.154;2023-08-06T06:42:33;15.00;99.90
8459;DHT22;4266;48.816;9.154;2023-08-06T06:44:58;15.10;99.90
8459;DHT22;4266;48.816;9.154;2023-08-06T06:47:24;15.40;99.90
8459;DHT22;4266;48.816;9.154;2023-08-06T06:49:50;15.60;99.90
8459;DHT22;4266;48.816;9.154;2023-08-06T06:52:16;15.60;99.90
8459;DHT22;4266;48.816;9.154;2023-08-06T06:54:42;15.50;99.70
8459;DHT22;4266;48.816;9.154;2023-08-06T06:57:07;15.60;99.90
8459;DHT22;4266;48.816;9.154;2023-08-06T06:59:33;15.40;99.90
8459;DHT22;4266;48.816;9.154;2023-08-06T07:01:59;15.20;99.70
8459;DHT22;4266;48.816;9.154;2023-08-06T07:04:24;15.20;99.90
8459;DHT22;4266;48.816;9.154;2023-08-06T07:06:51;15.20;99.90
8459;DHT22;4266;48.816;9.154;2023-08-06T07:09:16;15.20;99.90
8459;DHT22;4266;48.816;9.154;2023-08-06T07:11:43;15.10;99.90
8459;DHT22;4266;48.816;9.154;2023-08-06T07:14:08;15.10;99.90
8459;DHT22;4266;48.816;9.154;2023-08-06T07:16:34;15.10;99.90
8459;DHT22;4266;48.816;9.154;2023-08-06T07:19:01;15.00;99.90
8459;DHT22;4266;48.816;9.154;2023-08-06T07:21:26;15.00;99.90
8459;DHT22;4266;48.816;9.154;2023-08-06T07:23:53;15.00;99.90
8459;DHT22;4266;48.816;9.154;2023-08-06T07:26:18;15.00;99.90
8459;DHT22;4266;48.816;9.154;2023-08-06T07:28:44;14.80;99.90
8459;DHT22;4266;48.816;9.154;2023-08-06T07:31:10;14.80;99.90
8459;DHT22;4266;48.816;9.154;2023-08-06T07:33:38;14.80;99.90
8459;DHT22;4266;48.816;9.154;2023-08-06T07:36:10;14.90;99.90
8459;DHT22;4266;48.816;9.154;2023-08-06T07:38:35;14.80;99.90
8459;DHT22;4266;48.816;9.154;2023-08-06T07:41:01;14.80;99.90
8459;DHT22;4266;48.816;9.154;2023-08-06T07:43:27;15.00;99.90
8459;DHT22;4266;48.816;9.154;2023-08-06T07:45:52;15.10;99.90
8459;DHT22;4266;48.816;9.154;2023-08-06T07:48:18;15.00;99.90
8459;DHT22;4266;48.816;9.154;2023-08-06T07:50:44;15.00;99.90
8459;DHT22;4266;48.816;9.154;2023-08-06T07:53:09;15.20;99.90
8459;DHT22;4266;48.816;9.154;2023-08-06T07:55:36;15.40;99.90
8459;DHT22;4266;48.816;9.154;2023-08-06T07:58:01;15.30;99.90
8459;DHT22;4266;48.816;9.154;2023-08-06T08:00:27;15.60;99.90
8459;DHT22;4266;48.816;9.154;2023-08-06T08:02:53;15.80;99.90
8459;DHT22;4266;48.816;9.154;2023-08-06T08:05:19;16.00;99.90
8459;DHT22;4266;48.816;9.154;2023-08-06T08:07:45;16.00;99.90
8459;DHT22;4266;48.816;9.154;2023-08-06T08:10:11;16.20;99.10
8459;DHT22;4266;48.816;9.154;2023-08-06T08:12:38;16.60;98.70
8459;DHT22;4266;48.816;9.154;2023-08-06T08:15:04;16.60;98.60
8459;DHT22;4266;48.816;9.154;2023-08-06T08:17:30;16.80;97.80
8459;DHT22;4266;48.816;9.154;2023-08-06T08:19:56;17.00;97.50
8459;DHT22;4266;48.816;9.154;2023-08-06T08:22:22;18.00;97.50
8459;DHT22;4266;48.816;9.154;2023-08-06T08:24:48;19.30;96.20
8459;DHT22;4266;48.816;9.154;2023-08-06T08:27:14;19.30;94.50
8459;DHT22;4266;48.816;9.154;2023-08-06T08:29:40;19.80;93.40
8459;DHT22;4266;48.816;9.154;2023-08-06T08:32:06;19.70;93.30
8459;DHT22;4266;48.816;9.154;2023-08-06T08:34:32;20.10;92.90
8459;DHT22;4266;48.816;9.154;2023-08-06T08:36:57;19.70;93.30
8459;DHT22;4266;48.816;9.154;2023-08-06T08:39:24;19.10;92.90
8459;DHT22;4266;48.816;9.154;2023-08-06T08:41:50;19.10;92.90
8459;DHT22;4266;48.816;9.154;2023-08-06T08:44:16;18.90;93.00
8459;DHT22;4266;48.816;9.154;2023-08-06T08:46:42;19.10;92.80
8459;DHT22;4266;48.816;9.154;2023-08-06T08:49:08;19.50;92.90
8459;DHT22;4266;48.816;9.154;2023-08-06T08:51:34;19.40;92.80
8459;DHT22;4266;48.816;9.154;2023-08-06T08:54:02;19.20;92.80
8459;DHT22;4266;48.816;9.154;2023-08-06T08:56:26;18.60;92.40
8459;DHT22;4266;48.816;9.154;2023-08-06T08:58:52;18.40;92.80
8459;DHT22;4266;48.816;9.154;2023-08-06T09:01:18;18.40;93.10
8459;DHT22;4266;48.816;9.154;2023-08-06T09:03:44;17.90;93.90
8459;DHT22;4266;48.816;9.154;2023-08-06T09:06:11;17.60;95.10
8459;DHT22;4266;48.816;9.154;2023-08-06T09:08:39;17.60;94.90
8459;DHT22;4266;48.816;9.154;2023-08-06T09:11:03;17.60;94.90
8459;DHT22;4266;48.816;9.154;2023-08-06T09:13:28;17.80;95.20
8459;DHT22;4266;48.816;9.154;2023-08-06T09:15:54;17.70;95.50
8459;DHT22;4266;48.816;9.154;2023-08-06T09:18:25;17.70;94.40
8459;DHT22;4266;48.816;9.154;2023-08-06T09:20:51;17.50;94.40
8459;DHT22;4266;48.816;9.154;2023-08-06T09:23:16;17.80;94.20
8459;DHT22;4266;48.816;9.154;2023-08-06T09:25:42;18.20;94.80
8459;DHT22;4266;48.816;9.154;2023-08-06T09:28:08;18.30;94.70
8459;DHT22;4266;48.816;9.154;2023-08-06T09:30:34;18.40;94.40
8459;DHT22;4266;48.816;9.154;2023-08-06T09:32:59;18.20;94.60
8459;DHT22;4266;48.816;9.154;2023-08-06T09:35:28;17.90;94.70
8459;DHT22;4266;48.816;9.154;2023-08-06T09:37:51;17.90;94.70
8459;DHT22;4266;48.816;9.154;2023-08-06T09:40:30;17.80;95.00
8459;DHT22;4266;48.816;9.154;2023-08-06T09:42:53;17.50;95.50
8459;DHT22;4266;48.816;9.154;2023-08-06T09:45:18;17.40;95.50
8459;DHT22;4266;48.816;9.154;2023-08-06T09:47:44;17.50;95.30
8459;DHT22;4266;48.816;9.154;2023-08-06T09:50:18;17.50;95.90
8459;DHT22;4266;48.816;9.154;2023-08-06T09:52:43;17.30;95.30
8459;DHT22;4266;48.816;9.154;2023-08-06T09:55:10;17.40;95.50
8459;DHT22;4266;48.816;9.154;2023-08-06T09:57:35;17.50;95.80
8459;DHT22;4266;48.816;9.154;2023-08-06T10:00:00;17.60;96.10
8459;DHT22;4266;48.816;9.154;2023-08-06T10:02:26;17.60;95.50
8459;DHT22;4266;48.816;9.154;2023-08-06T10:04:52;17.40;95.10
8459;DHT22;4266;48.816;9.154;2023-08-06T10:07:17;17.40;96.10
8459;DHT22;4266;48.816;9.154;2023-08-06T10:09:43;17.50;95.80
8459;DHT22;4266;48.816;9.154;2023-08-06T10:12:10;17.90;96.30
8459;DHT22;4266;48.816;9.154;2023-08-06T10:14:36;18.40;95.60
8459;DHT22;4266;48.816;9.154;2023-08-06T10:17:03;18.40;94.50
8459;DHT22;4266;48.816;9.154;2023-08-06T10:19:30;18.30;94.50
8459;DHT22;4266;48.816;9.154;2023-08-06T10:22:08;18.30;94.50
8459;DHT22;4266;48.816;9.154;2023-08-06T10:27:07;18.20;95.70
8459;DHT22;4266;48.816;9.154;2023-08-06T10:29:35;18.10;95.60
8459;DHT22;4266;48.816;9.154;2023-08-06T10:32:02;18.50;94.80
8459;DHT22;4266;48.816;9.154;2023-08-06T10:37:15;18.50;94.80
8459;DHT22;4266;48.816;9.154;2023-08-06T10:39:48;19.10;94.70
8459;DHT22;4266;48.816;9.154;2023-08-06T10:42:19;19.10;94.70
8459;DHT22;4266;48.816;9.154;2023-08-06T10:44:35;19.70;93.10
8459;DHT22;4266;48.816;9.154;2023-08-06T10:47:25;19.70;93.10
8459;DHT22;4266;48.816;9.154;2023-08-06T10:49:26;20.00;93.00
8459;DHT22;4266;48.816;9.154;2023-08-06T10:51:52;19.50;93.00
8459;DHT22;4266;48.816;9.154;2023-08-06T10:54:18;19.40;93.80
8459;DHT22;4266;48.816;9.154;2023-08-06T10:56:44;19.20;92.70
8459;DHT22;4266;48.816;9.154;2023-08-06T10:59:10;19.00;93.60
8459;DHT22;4266;48.816;9.154;2023-08-06T11:01:36;19.00;93.40
8459;DHT22;4266;48.816;9.154;2023-08-06T11:04:02;18.70;92.70
8459;DHT22;4266;48.816;9.154;2023-08-06T11:06:27;18.30;93.30
8459;DHT22;4266;48.816;9.154;2023-08-06T11:08:53;18.10;93.70
8459;DHT22;4266;48.816;9.154;2023-08-06T11:11:19;17.90;92.90
8459;DHT22;4266;48.816;9.154;2023-08-06T11:13:47;17.50;93.00
8459;DHT22;4266;48.816;9.154;2023-08-06T11:16:12;17.50;93.10
8459;DHT22;4266;48.816;9.154;2023-08-06T11:18:36;17.70;93.10
8459;DHT22;4266;48.816;9.154;2023-08-06T11:21:03;17.80;92.20
8459;DHT22;4266;48.816;9.154;2023-08-06T11:23:29;17.80;92.20
8459;DHT22;4266;48.816;9.154;2023-08-06T11:25:55;17.50;92.70
8459;DHT22;4266;48.816;9.154;2023-08-06T11:28:20;17.40;93.00
8459;DHT22;4266;48.816;9.154;2023-08-06T11:30:47;17.80;92.70
8459;DHT22;4266;48.816;9.154;2023-08-06T11:33:12;18.00;92.50
8459;DHT22;4266;48.816;9.154;2023-08-06T11:35:39;17.70;91.80
8459;DHT22;4266;48.816;9.154;2023-08-06T11:38:05;17.70;91.80
8459;DHT22;4266;48.816;9.154;2023-08-06T11:40:31;17.80;92.70
8459;DHT22;4266;48.816;9.154;2023-08-06T11:42:57;17.80;92.70
8459;DHT22;4266;48.816;9.154;2023-08-06T11:45:23;17.80;92.30
8459;DHT22;4266;48.816;9.154;2023-08-06T11:47:50;17.40;92.50
8459;DHT22;4266;48.816;9.154;2023-08-06T11:50:23;17.40;92.50
8459;DHT22;4266;48.816;9.154;2023-08-06T11:52:49;17.10;93.40
8459;DHT22;4266;48.816;9.154;2023-08-06T11:55:14;17.10;93.40
8459;DHT22;4266;48.816;9.154;2023-08-06T11:57:44;17.00;93.60
8459;DHT22;4266;48.816;9.154;2023-08-06T12:00:10;17.00;93.50
8459;DHT22;4266;48.816;9.154;2023-08-06T12:02:36;16.70;93.60
8459;DHT22;4266;48.816;9.154;2023-08-06T12:05:03;16.70;93.50
8459;DHT22;4266;48.816;9.154;2023-08-06T12:07:29;16.50;93.70
8459;DHT22;4266;48.816;9.154;2023-08-06T12:09:54;16.20;93.30
8459;DHT22;4266;48.816;9.154;2023-08-06T12:12:19;16.30;94.70
8459;DHT22;4266;48.816;9.154;2023-08-06T12:14:45;16.30;94.40
8459;DHT22;4266;48.816;9.154;2023-08-06T12:17:11;16.10;95.10
8459;DHT22;4266;48.816;9.154;2023-08-06T12:19:36;16.00;94.30
8459;DHT22;4266;48.816;9.154;2023-08-06T12:22:03;15.90;93.90
8459;DHT22;4266;48.816;9.154;2023-08-06T12:24:29;16.00;94.30
8459;DHT22;4266;48.816;9.154;2023-08-06T12:26:54;16.10;94.60
8459;DHT22;4266;48.816;9.154;2023-08-06T12:29:20;16.10;94.60
8459;DHT22;4266;48.816;9.154;2023-08-06T12:31:46;16.60;94.10
8459;DHT22;4266;48.816;9.154;2023-08-06T12:34:12;16.50;94.10
8459;DHT22;4266;48.816;9.154;2023-08-06T12:36:38;17.20;93.80
8459;DHT22;4266;48.816;9.154;2023-08-06T12:39:05;17.70;92.60
8459;DHT22;4266;48.816;9.154;2023-08-06T12:41:30;17.70;92.60
8459;DHT22;4266;48.816;9.154;2023-08-06T12:43:56;18.30;92.30
8459;DHT22;4266;48.816;9.154;2023-08-06T12:46:22;19.20;92.40
8459;DHT22;4266;48.816;9.154;2023-08-06T12:48:47;20.10;90.30
8459;DHT22;4266;48.816;9.154;2023-08-06T12:51:13;20.20;89.80
8459;DHT22;4266;48.816;9.154;2023-08-06T12:53:39;20.40;89.80
8459;DHT22;4266;48.816;9.154;2023-08-06T12:56:04;20.50;85.90
8459;DHT22;4266;48.816;9.154;2023-08-06T12:58:30;20.20;87.30
8459;DHT22;4266;48.816;9.154;2023-08-06T13:00:56;19.90;88.10
8459;DHT22;4266;48.816;9.154;2023-08-06T13:03:21;19.30;86.60
8459;DHT22;4266;48.816;9.154;2023-08-06T13:05:48;20.00;86.70
8459;DHT22;4266;48.816;9.154;2023-08-06T13:08:13;19.90;86.50
8459;DHT22;4266;48.816;9.154;2023-08-06T13:10:39;19.70;86.10
8459;DHT22;4266;48.816;9.154;2023-08-06T13:13:05;19.40;87.20
8459;DHT22;4266;48.816;9.154;2023-08-06T13:15:30;19.30;85.90
8459;DHT22;4266;48.816;9.154;2023-08-06T13:17:56;19.70;86.50
8459;DHT22;4266;48.816;9.154;2023-08-06T13:20:22;19.90;86.10
8459;DHT22;4266;48.816;9.154;2023-08-06T13:22:48;19.40;84.00
8459;DHT22;4266;48.816;9.154;2023-08-06T13:25:13;18.90;85.10
8459;DHT22;4266;48.816;9.154;2023-08-06T13:27:39;18.80;85.80
8459;DHT22;4266;48.816;9.154;2023-08-06T13:30:06;19.20;85.60
8459;DHT22;4266;48.816;9.154;2023-08-06T13:32:33;20.30;85.60
8459;DHT22;4266;48.816;9.154;2023-08-06T13:34:58;20.20;86.00
8459;DHT22;4266;48.816;9.154;2023-08-06T13:37:24;20.20;82.70
8459;DHT22;4266;48.816;9.154;2023-08-06T13:39:50;19.80;83.70
8459;DHT22;4266;48.816;9.154;2023-08-06T13:42:15;19.90;83.20
8459;DHT22;4266;48.816;9.154;2023-08-06T13:44:41;19.70;82.70
8459;DHT22;4266;48.816;9.154;2023-08-06T13:47:07;19.20;83.20
8459;DHT22;4266;48.816;9.154;2023-08-06T13:49:33;19.10;83.10
8459;DHT22;4266;48.816;9.154;2023-08-06T13:51:59;19.00;83.30
8459;DHT22;4266;48.816;9.154;2023-08-06T13:54:24;19.00;84.30
8459;DHT22;4266;48.816;9.154;2023-08-06T13:56:51;19.20;83.30
8459;DHT22;4266;48.816;9.154;2023-08-06T13:59:17;18.80;83.30
8459;DHT22;4266;48.816;9.154;2023-08-06T14:01:43;18.80;83.30
8459;DHT22;4266;48.816;9.154;2023-08-06T14:04:09;18.30;85.30
8459;DHT22;4266;48.816;9.154;2023-08-06T14:06:35;18.00;84.90
8459;DHT22;4266;48.816;9.154;2023-08-06T14:09:01;18.00;84.90
8459;DHT22;4266;48.816;9.154;2023-08-06T14:11:27;17.70;84.70
8459;DHT22;4266;48.816;9.154;2023-08-06T14:13:53;17.50;88.20
8459;DHT22;4266;48.816;9.154;2023-08-06T14:16:19;17.50;88.30
8459;DHT22;4266;48.816;9.154;2023-08-06T14:18:44;17.60;90.00
8459;DHT22;4266;48.816;9.154;2023-08-06T14:21:10;17.40;89.60
8459;DHT22;4266;48.816;9.154;2023-08-06T14:23:36;17.40;88.60
8459;DHT22;4266;48.816;9.154;2023-08-06T14:26:02;18.00;88.90
8459;DHT22;4266;48.816;9.154;2023-08-06T14:28:28;17.90;88.80
8459;DHT22;4266;48.816;9.154;2023-08-06T14:30:53;18.10;88.20
8459;DHT22;4266;48.816;9.154;2023-08-06T14:33:19;18.30;87.20
8459;DHT22;4266;48.816;9.154;2023-08-06T14:35:45;18.60;87.80
8459;DHT22;4266;48.816;9.154;2023-08-06T14:38:11;18.50;87.60
8459;DHT22;4266;48.816;9.154;2023-08-06T14:40:38;18.70;87.20
8459;DHT22;4266;48.816;9.154;2023-08-06T14:43:05;18.60;87.00
8459;DHT22;4266;48.816;9.154;2023-08-06T14:45:29;18.40;85.70
8459;DHT22;4266;48.816;9.154;2023-08-06T14:47:55;18.40;87.80
8459;DHT22;4266;48.816;9.154;2023-08-06T14:50:20;18.20;85.70
8459;DHT22;4266;48.816;9.154;2023-08-06T14:52:47;17.70;90.00
8459;DHT22;4266;48.816;9.154;2023-08-06T14:55:17;17.60;89.80
8459;DHT22;4266;48.816;9.154;2023-08-06T14:57:43;17.50;89.70
8459;DHT22;4266;48.816;9.154;2023-08-06T15:00:10;17.30;90.20
8459;DHT22;4266;48.816;9.154;2023-08-06T15:02:36;17.30;90.20
8459;DHT22;4266;48.816;9.154;2023-08-06T15:05:02;17.00;90.70
8459;DHT22;4266;48.816;9.154;2023-08-06T15:07:28;16.90;91.20
8459;DHT22;4266;48.816;9.154;2023-08-06T15:09:54;16.90;91.20
8459;DHT22;4266;48.816;9.154;2023-08-06T15:12:20;17.30;90.30
8459;DHT22;4266;48.816;9.154;2023-08-06T15:14:46;17.30;90.30
8459;DHT22;4266;48.816;9.154;2023-08-06T15:17:12;17.70;91.00
8459;DHT22;4266;48.816;9.154;2023-08-06T15:19:37;17.70;90.30
8459;DHT22;4266;48.816;9.154;2023-08-06T15:22:03;17.60;90.20
8459;DHT22;4266;48.816;9.154;2023-08-06T15:24:29;18.00;89.70
8459;DHT22;4266;48.816;9.154;2023-08-06T15:26:55;18.00;89.70
8459;DHT22;4266;48.816;9.154;2023-08-06T15:29:21;18.20;88.90
8459;DHT22;4266;48.816;9.154;2023-08-06T15:31:46;18.00;86.60
8459;DHT22;4266;48.816;9.154;2023-08-06T15:34:12;18.10;86.60
8459;DHT22;4266;48.816;9.154;2023-08-06T15:36:38;18.20;86.90
8459;DHT22;4266;48.816;9.154;2023-08-06T15:39:04;18.10;86.40
8459;DHT22;4266;48.816;9.154;2023-08-06T15:41:29;18.10;85.30
8459;DHT22;4266;48.816;9.154;2023-08-06T15:43:55;18.20;85.80
8459;DHT22;4266;48.816;9.154;2023-08-06T15:46:21;17.90;84.20
8459;DHT22;4266;48.816;9.154;2023-08-06T15:48:46;18.10;85.60
8459;DHT22;4266;48.816;9.154;2023-08-06T15:51:12;18.30;84.80
8459;DHT22;4266;48.816;9.154;2023-08-06T15:53:38;18.20;84.70
8459;DHT22;4266;48.816;9.154;2023-08-06T15:56:05;17.50;84.50
8459;DHT22;4266;48.816;9.154;2023-08-06T15:58:31;17.50;84.40